createdAt,value
2023-02-27T00:01:42.515Z,100855.64
2023-02-27T00:04:29.022Z,100854.79
2023-02-27T00:07:15.921Z,100859.40
2023-02-27T00:10:02.402Z,100863.31
2023-02-27T00:12:49.113Z,100859.02
2023-02-27T00:15:38.284Z,100863.23
2023-02-27T00:18:25.039Z,100879.64
2023-02-27T00:21:11.718Z,100878.54
2023-02-27T00:23:58.324Z,100879.33
2023-02-27T00:26:44.933Z,100880.41
2023-02-27T00:29:31.628Z,100879.09
2023-02-27T00:32:18.183Z,100880.77
2023-02-27T00:35:06.376Z,100887.11
2023-02-27T00:37:53.074Z,100888.56
2023-02-27T00:40:39.909Z,100889.10
2023-02-27T00:43:26.947Z,100889.26
2023-02-27T00:46:14.851Z,100890.98
2023-02-27T00:49:01.367Z,100894.30
2023-02-27T00:51:48.391Z,100891.70
2023-02-27T00:54:35.434Z,100886.08
2023-02-27T00:57:22.977Z,100893.41
2023-02-27T01:00:10.579Z,100892.70
2023-02-27T01:02:57.427Z,100889.23
2023-02-27T01:05:44.463Z,100891.23
2023-02-27T01:08:31.044Z,100891.23
2023-02-27T01:11:18.068Z,100896.34
2023-02-27T01:14:05.088Z,100898.80
2023-02-27T01:16:52.489Z,100900.55
2023-02-27T01:19:39.441Z,100903.27
2023-02-27T01:22:26.185Z,100903.52
2023-02-27T01:25:12.991Z,100905.33
2023-02-27T01:27:59.687Z,100898.16
2023-02-27T01:30:46.299Z,100892.79
2023-02-27T01:33:33.132Z,100898.55
2023-02-27T01:36:20.457Z,100899.00
2023-02-27T01:39:06.884Z,100897.49
2023-02-27T01:41:53.822Z,100896.59
2023-02-27T01:45:12.222Z,100894.63
2023-02-27T01:48:06.398Z,100899.20
2023-02-27T01:51:12.037Z,100904.29
2023-02-27T01:54:00.456Z,100907.05
2023-02-27T01:56:48.195Z,100911.55
2023-02-27T01:59:36.796Z,100910.39
2023-02-27T02:02:29.628Z,100911.05
2023-02-27T02:05:16.535Z,100914.58
2023-02-27T02:08:04.587Z,100916.36
2023-02-27T02:10:53.672Z,100917.61
2023-02-27T02:13:41.755Z,100917.34
2023-02-27T02:16:37.418Z,100915.01
2023-02-27T02:20:16.285Z,100921.70
2023-02-27T02:23:21.444Z,100920.30
2023-02-27T02:26:20.341Z,100922.00
2023-02-27T02:29:25.578Z,100919.25
2023-02-27T02:32:33.820Z,100923.39
2023-02-27T02:36:05.660Z,100927.57
2023-02-27T02:38:58.060Z,100930.36
2023-02-27T02:42:05.153Z,100932.98
2023-02-27T02:44:57.556Z,100938.66
2023-02-27T02:48:00.605Z,100941.27
2023-02-27T02:51:01.446Z,100941.87
2023-02-27T02:53:55.821Z,100947.36
2023-02-27T02:56:50.565Z,100954.88
2023-02-27T02:59:50.275Z,100957.81
2023-02-27T03:02:47.326Z,100957.55
2023-02-27T03:05:41.993Z,100957.88
2023-02-27T03:08:38.329Z,100963.94
2023-02-27T03:11:32.310Z,100971.39
2023-02-27T03:14:23.210Z,100975.68
2023-02-27T03:17:17.909Z,100976.46
2023-02-27T03:20:08.577Z,100987.13
2023-02-27T03:23:00.030Z,100992.85
2023-02-27T03:25:50.943Z,100992.76
2023-02-27T03:28:41.501Z,100998.67
2023-02-27T03:31:45.097Z,100998.78
2023-02-27T03:34:37.995Z,100996.98
2023-02-27T03:37:54.336Z,100999.28
2023-02-27T03:40:43.974Z,101000.98
2023-02-27T03:43:54.707Z,101002.55
2023-02-27T03:46:43.259Z,101003.27
2023-02-27T03:49:30.059Z,101007.56
2023-02-27T03:52:21.128Z,101009.11
2023-02-27T03:55:11.479Z,101007.67
2023-02-27T03:57:58.795Z,101011.59
2023-02-27T04:00:45.540Z,101015.12
2023-02-27T04:03:39.544Z,101016.34
2023-02-27T04:06:44.917Z,101018.15
2023-02-27T04:09:53.187Z,101025.14
2023-02-27T04:13:04.664Z,101021.68
2023-02-27T04:16:00.718Z,101029.45
2023-02-27T04:19:11.388Z,101031.59
2023-02-27T04:22:17.362Z,101034.32
2023-02-27T04:25:19.080Z,101031.73
2023-02-27T04:28:14.252Z,101034.28
2023-02-27T04:31:22.678Z,101038.25
2023-02-27T04:34:23.388Z,101042.65
2023-02-27T04:37:24.581Z,101044.31
2023-02-27T04:40:14.824Z,101047.09
2023-02-27T04:43:04.413Z,101049.73
2023-02-27T04:45:53.007Z,101056.23
2023-02-27T04:48:54.322Z,101055.55
2023-02-27T04:51:55.709Z,101054.46
2023-02-27T04:55:05.899Z,101057.60
2023-02-27T04:58:14.065Z,101054.85
2023-02-27T05:01:07.747Z,101066.56
2023-02-27T05:03:58.330Z,101067.15
2023-02-27T05:06:48.542Z,101072.52
2023-02-27T05:10:00.484Z,101074.62
2023-02-27T05:12:57.803Z,101079.27
2023-02-27T05:15:49.677Z,101081.52
2023-02-27T05:18:36.351Z,101084.94
2023-02-27T05:21:33.653Z,101088.95
2023-02-27T05:24:49.047Z,101095.80
2023-02-27T05:27:44.416Z,101100.45
2023-02-27T05:30:46.480Z,101101.37
2023-02-27T05:33:55.736Z,101103.79
2023-02-27T05:37:07.636Z,101109.14
2023-02-27T05:39:54.664Z,101114.15
2023-02-27T05:42:45.810Z,101118.34
2023-02-27T05:45:37.406Z,101123.84
2023-02-27T05:48:30.287Z,101125.05
2023-02-27T05:51:19.479Z,101127.00
2023-02-27T05:54:13.661Z,101135.43
2023-02-27T05:57:03.252Z,101137.52
2023-02-27T06:00:15.975Z,101137.78
2023-02-27T06:03:02.571Z,101141.58
2023-02-27T06:05:53.026Z,101144.71
2023-02-27T06:08:40.535Z,101145.42
2023-02-27T06:11:27.054Z,101146.89
2023-02-27T06:14:13.698Z,101150.06
2023-02-27T06:17:00.492Z,101151.09
2023-02-27T06:19:47.218Z,101153.73
2023-02-27T06:22:34.143Z,101152.11
2023-02-27T06:25:22.033Z,101158.59
2023-02-27T06:28:09.637Z,101156.91
2023-02-27T06:30:57.358Z,101161.67
2023-02-27T06:33:43.689Z,101162.52
2023-02-27T06:36:30.674Z,101171.56
2023-02-27T06:39:17.561Z,101173.42
2023-02-27T06:42:04.416Z,101178.97
2023-02-27T06:44:51.048Z,101186.27
2023-02-27T06:47:38.652Z,101192.94
2023-02-27T06:50:24.904Z,101193.59
2023-02-27T06:53:11.378Z,101198.48
2023-02-27T06:55:57.735Z,101198.52
2023-02-27T06:58:44.277Z,101206.82
2023-02-27T07:01:30.965Z,101212.79
2023-02-27T07:04:17.982Z,101215.49
2023-02-27T07:07:35.893Z,101216.64
2023-02-27T07:10:15.670Z,101216.44
2023-02-27T07:13:02.991Z,101224.02
2023-02-27T07:15:50.809Z,101230.29
2023-02-27T07:18:37.323Z,101228.48
2023-02-27T07:21:23.612Z,101228.89
2023-02-27T07:24:10.376Z,101233.29
2023-02-27T07:26:57.040Z,101230.89
2023-02-27T07:29:44.681Z,101233.20
2023-02-27T07:32:31.223Z,101229.71
2023-02-27T07:35:19.558Z,101235.43
2023-02-27T07:38:06.055Z,101235.07
2023-02-27T07:40:53.855Z,101236.87
2023-02-27T07:43:40.448Z,101234.32
2023-02-27T07:46:27.701Z,101243.28
2023-02-27T07:49:14.882Z,101241.00
2023-02-27T07:52:01.428Z,101240.46
2023-02-27T07:54:48.149Z,101242.74
2023-02-27T07:57:34.534Z,101240.46
2023-02-27T08:00:23.860Z,101241.34
2023-02-27T08:03:14.109Z,101247.32
2023-02-27T08:06:02.346Z,101249.45
2023-02-27T08:08:49.411Z,101250.75
2023-02-27T08:11:36.042Z,101251.15
2023-02-27T08:14:23.296Z,101258.19
2023-02-27T08:17:09.795Z,101257.41
2023-02-27T08:19:56.155Z,101262.15
2023-02-27T08:22:43.216Z,101262.79
2023-02-27T08:25:30.222Z,101264.09
2023-02-27T08:28:18.318Z,101263.00
2023-02-27T08:31:04.851Z,101265.73
2023-02-27T08:33:58.074Z,101274.50
2023-02-27T08:36:54.642Z,101281.77
2023-02-27T08:39:42.777Z,101284.99
2023-02-27T08:42:29.511Z,101289.82
2023-02-27T08:45:16.316Z,101288.41
2023-02-27T08:48:02.826Z,101287.55
2023-02-27T08:50:49.496Z,101288.55
2023-02-27T08:53:36.171Z,101290.64
2023-02-27T08:56:22.747Z,101291.67
2023-02-27T08:59:09.492Z,101297.25
2023-02-27T09:01:56.440Z,101300.62
2023-02-27T09:04:43.179Z,101299.67
2023-02-27T09:07:29.856Z,101304.02
2023-02-27T09:10:17.805Z,101310.77
2023-02-27T09:13:04.677Z,101315.04
2023-02-27T09:15:51.047Z,101316.59
2023-02-27T09:18:37.585Z,101324.73
2023-02-27T09:21:24.796Z,101328.30
2023-02-27T09:24:19.790Z,101330.81
2023-02-27T09:27:06.696Z,101332.33
2023-02-27T09:29:55.940Z,101342.38
2023-02-27T09:32:42.562Z,101343.05
2023-02-27T09:35:31.309Z,101347.66
2023-02-27T09:38:17.631Z,101347.36
2023-02-27T09:41:06.517Z,101347.91
2023-02-27T09:43:52.870Z,101351.35
2023-02-27T09:46:39.608Z,101354.39
2023-02-27T09:49:32.743Z,101357.90
2023-02-27T09:52:19.713Z,101360.43
2023-02-27T09:55:15.244Z,101363.77
2023-02-27T09:58:15.159Z,101373.58
2023-02-27T10:01:25.754Z,101381.72
2023-02-27T10:04:44.770Z,101375.02
2023-02-27T10:08:16.695Z,101381.16
2023-02-27T10:11:10.860Z,101384.80
2023-02-27T10:14:06.535Z,101385.37
2023-02-27T10:16:55.219Z,101386.24
2023-02-27T10:19:45.956Z,101386.13
2023-02-27T10:22:42.024Z,101391.02
2023-02-27T10:25:31.982Z,101390.90
2023-02-27T10:28:21.785Z,101392.29
2023-02-27T10:31:24.044Z,101389.05
2023-02-27T10:34:16.405Z,101390.64
2023-02-27T10:37:05.869Z,101395.15
2023-02-27T10:40:04.443Z,101395.21
2023-02-27T10:42:53.626Z,101398.77
2023-02-27T10:45:40.464Z,101408.67
2023-02-27T10:48:26.893Z,101407.08
2023-02-27T10:51:21.224Z,101405.15
2023-02-27T10:54:21.784Z,101405.17
2023-02-27T10:57:33.545Z,101403.10
2023-02-27T11:00:38.468Z,101402.38
2023-02-27T11:03:29.177Z,101407.02
2023-02-27T11:06:25.214Z,101405.24
2023-02-27T11:09:13.684Z,101404.98
2023-02-27T11:12:13.130Z,101406.61
2023-02-27T11:15:22.149Z,101405.14
2023-02-27T11:18:30.639Z,101403.73
2023-02-27T11:21:27.918Z,101409.58
2023-02-27T11:24:20.140Z,101414.22
2023-02-27T11:27:29.013Z,101412.16
2023-02-27T11:30:31.974Z,101408.64
2023-02-27T11:33:21.003Z,101414.29
2023-02-27T11:36:08.736Z,101415.90
2023-02-27T11:38:56.825Z,101417.77
2023-02-27T11:41:44.998Z,101420.59
2023-02-27T11:44:49.911Z,101419.55
2023-02-27T11:47:41.141Z,101419.04
2023-02-27T11:50:35.292Z,101418.80
2023-02-27T11:54:16.755Z,101416.08
2023-02-27T11:57:21.824Z,101416.88
2023-02-27T12:00:18.016Z,101417.20
2023-02-27T12:03:44.395Z,101412.31
2023-02-27T12:07:08.225Z,101419.37
2023-02-27T12:10:10.514Z,101414.88
2023-02-27T12:13:06.926Z,101415.23
2023-02-27T12:16:02.880Z,101418.39
2023-02-27T12:18:56.849Z,101421.09
2023-02-27T12:21:49.716Z,101423.50
2023-02-27T12:24:47.344Z,101428.88
2023-02-27T12:27:46.683Z,101431.71
2023-02-27T12:34:50.372Z,101437.48
2023-02-27T12:37:38.029Z,101438.55
2023-02-27T12:40:35.496Z,101439.18
2023-02-27T12:44:01.700Z,101436.56
2023-02-27T12:47:05.420Z,101446.05
2023-02-27T12:49:59.846Z,101446.36
2023-02-27T12:53:24.091Z,101445.65
2023-02-27T12:56:17.130Z,101448.45
2023-02-27T12:59:30.563Z,101447.08
2023-02-27T13:02:42.023Z,101451.74
2023-02-27T13:05:32.368Z,101451.30
2023-02-27T13:08:55.752Z,101448.24
2023-02-27T13:12:20.872Z,101448.08
2023-02-27T13:15:25.378Z,101452.20
2023-02-27T13:18:32.412Z,101460.66
2023-02-27T13:21:41.480Z,101458.14
2023-02-27T13:24:32.311Z,101453.83
2023-02-27T13:27:33.265Z,101457.77
2023-02-27T13:30:29.797Z,101461.09
2023-02-27T13:33:30.450Z,101461.66
2023-02-27T13:36:32.013Z,101452.87
2023-02-27T13:39:47.127Z,101456.88
2023-02-27T13:42:33.983Z,101464.57
2023-02-27T13:45:51.410Z,101466.76
2023-02-27T13:48:46.353Z,101465.38
2023-02-27T13:51:35.962Z,101466.86
2023-02-27T13:54:29.406Z,101469.43
2023-02-27T13:57:27.804Z,101467.70
2023-02-27T14:00:23.828Z,101467.84
2023-02-27T14:03:25.770Z,101470.35
2023-02-27T14:06:13.014Z,101471.27
2023-02-27T14:09:12.788Z,101470.61
2023-02-27T14:12:04.677Z,101465.40
2023-02-27T14:14:51.767Z,101468.27
2023-02-27T14:17:38.319Z,101465.75
2023-02-27T14:20:27.367Z,101469.11
2023-02-27T14:23:17.176Z,101472.23
2023-02-27T14:26:20.645Z,101473.92
2023-02-27T14:29:17.216Z,101479.36
2023-02-27T14:32:07.900Z,101482.92
2023-02-27T14:34:55.418Z,101480.91
2023-02-27T14:37:42.212Z,101481.98
2023-02-27T14:40:35.074Z,101483.31
2023-02-27T14:43:34.931Z,101488.02
2023-02-27T14:46:29.364Z,101490.83
2023-02-27T14:49:34.504Z,101493.83
2023-02-27T14:52:26.364Z,101491.93
2023-02-27T14:55:17.020Z,101492.99
2023-02-27T14:58:15.269Z,101494.63
2023-02-27T15:01:07.748Z,101498.83
2023-02-27T15:03:58.065Z,101499.36
2023-02-27T15:06:48.845Z,101501.27
2023-02-27T15:09:42.977Z,101497.31
2023-02-27T15:12:29.652Z,101498.98
2023-02-27T15:15:19.989Z,101502.30
2023-02-27T15:18:16.627Z,101505.86
2023-02-27T15:21:03.203Z,101510.91
2023-02-27T15:24:05.373Z,101512.27
2023-02-27T15:26:56.242Z,101516.22
2023-02-27T15:29:45.389Z,101520.98
2023-02-27T15:32:33.572Z,101524.90
2023-02-27T15:35:23.727Z,101530.56
2023-02-27T15:38:25.262Z,101533.95
2023-02-27T15:41:17.054Z,101531.52
2023-02-27T15:44:04.802Z,101534.64
2023-02-27T15:46:51.781Z,101540.24
2023-02-27T15:49:38.857Z,101544.89
2023-02-27T15:52:31.689Z,101552.34
2023-02-27T15:55:27.937Z,101563.08
2023-02-27T15:58:19.384Z,101568.59
2023-02-27T16:01:19.382Z,101570.58
2023-02-27T16:04:20.603Z,101572.64
2023-02-27T16:07:14.884Z,101577.16
2023-02-27T16:10:10.862Z,101580.94
2023-02-27T16:12:57.121Z,101585.02
2023-02-27T16:15:44.645Z,101594.56
2023-02-27T16:18:38.571Z,101599.23
2023-02-27T16:21:33.595Z,101604.44
2023-02-27T16:24:31.941Z,101608.01
2023-02-27T16:27:25.536Z,101608.08
2023-02-27T16:30:13.034Z,101606.90
2023-02-27T16:33:01.494Z,101614.59
2023-02-27T16:35:48.311Z,101615.77
2023-02-27T16:38:35.138Z,101618.70
2023-02-27T16:41:24.265Z,101620.05
2023-02-27T16:44:11.604Z,101624.48
2023-02-27T16:47:02.109Z,101629.05
2023-02-27T16:49:49.541Z,101631.84
2023-02-27T16:52:36.435Z,101636.36
2023-02-27T16:55:24.128Z,101634.17
2023-02-27T16:58:15.633Z,101636.21
2023-02-27T17:01:02.304Z,101637.39
2023-02-27T17:03:49.168Z,101641.61
2023-02-27T17:06:35.924Z,101646.91
2023-02-27T17:09:22.728Z,101652.21
2023-02-27T17:12:09.352Z,101659.40
2023-02-27T17:14:56.330Z,101663.86
2023-02-27T17:17:43.213Z,101664.54
2023-02-27T17:20:30.190Z,101665.40
2023-02-27T17:23:17.742Z,101673.77
2023-02-27T17:26:04.431Z,101680.58
2023-02-27T17:28:50.909Z,101682.59
2023-02-27T17:31:38.190Z,101685.96
2023-02-27T17:34:25.805Z,101685.91
2023-02-27T17:37:12.486Z,101688.67
2023-02-27T17:39:59.305Z,101688.42
2023-02-27T17:42:45.912Z,101690.08
2023-02-27T17:45:33.050Z,101691.63
2023-02-27T17:48:19.628Z,101694.96
2023-02-27T17:51:10.284Z,101701.00
2023-02-27T17:53:57.820Z,101700.77
2023-02-27T17:56:44.421Z,101703.39
2023-02-27T17:59:31.696Z,101703.77
2023-02-27T18:02:18.548Z,101703.61
2023-02-27T18:05:06.501Z,101708.05
2023-02-27T18:07:55.323Z,101709.84
2023-02-27T18:10:47.916Z,101709.11
2023-02-27T18:13:34.425Z,101709.58
2023-02-27T18:16:22.045Z,101706.15
2023-02-27T18:19:08.982Z,101708.61
2023-02-27T18:21:57.106Z,101710.68
2023-02-27T18:24:43.831Z,101715.64
2023-02-27T18:27:30.453Z,101714.46
2023-02-27T18:30:19.600Z,101714.48
2023-02-27T18:33:06.435Z,101709.85
2023-02-27T18:35:52.896Z,101709.88
2023-02-27T18:38:40.198Z,101709.77
2023-02-27T18:41:27.985Z,101709.09
2023-02-27T18:44:14.471Z,101704.46
2023-02-27T18:47:01.078Z,101710.91
2023-02-27T18:49:47.711Z,101713.33
2023-02-27T18:52:37.169Z,101712.08
2023-02-27T18:55:24.630Z,101717.43
2023-02-27T18:58:11.077Z,101718.06
2023-02-27T19:00:58.350Z,101719.70
2023-02-27T19:03:45.084Z,101717.80
2023-02-27T19:06:40.956Z,101719.13
2023-02-27T19:09:32.755Z,101723.23
2023-02-27T19:12:19.336Z,101729.33
2023-02-27T19:15:06.346Z,101725.65
2023-02-27T19:17:54.689Z,101731.83
2023-02-27T19:21:03.849Z,101729.98
2023-02-27T19:23:51.076Z,101733.16
2023-02-27T19:26:39.186Z,101735.45
2023-02-27T19:29:25.638Z,101734.06
2023-02-27T19:32:14.556Z,101735.46
2023-02-27T19:35:01.164Z,101738.63
2023-02-27T19:37:48.793Z,101743.13
2023-02-27T19:40:35.608Z,101744.24
2023-02-27T19:44:39.291Z,101743.39
2023-02-27T19:47:25.552Z,101747.95
2023-02-27T19:50:12.666Z,101747.89
2023-02-27T19:52:59.265Z,101750.48
2023-02-27T19:55:47.677Z,101751.70
2023-02-27T19:58:36.086Z,101753.80
2023-02-27T20:01:26.924Z,101760.55
2023-02-27T20:04:13.989Z,101761.38
2023-02-27T20:07:01.707Z,101766.44
2023-02-27T20:09:50.016Z,101770.08
2023-02-27T20:12:36.645Z,101770.48
2023-02-27T20:15:23.500Z,101771.23
2023-02-27T20:18:09.855Z,101777.06
2023-02-27T20:21:05.170Z,101776.04
2023-02-27T20:23:52.605Z,101774.42
2023-02-27T20:26:44.777Z,101775.13
2023-02-27T20:29:31.576Z,101773.48
2023-02-27T20:32:18.326Z,101774.90
2023-02-27T20:35:06.548Z,101774.61
2023-02-27T20:37:53.091Z,101780.30
2023-02-27T20:40:40.707Z,101781.25
2023-02-27T20:43:30.812Z,101779.58
2023-02-27T20:46:20.307Z,101782.38
2023-02-27T20:49:07.622Z,101785.48
2023-02-27T20:51:54.171Z,101783.48
2023-02-27T20:54:41.029Z,101783.02
2023-02-27T20:57:27.560Z,101787.34
2023-02-27T21:00:15.122Z,101787.71
2023-02-27T21:03:03.414Z,101788.25
2023-02-27T21:05:50.913Z,101788.64
2023-02-27T21:08:39.589Z,101789.68
2023-02-27T21:11:29.353Z,101788.00
2023-02-27T21:14:16.114Z,101790.62
2023-02-27T21:17:03.744Z,101786.70
2023-02-27T21:19:52.624Z,101784.83
2023-02-27T21:22:47.031Z,101788.44
2023-02-27T21:25:33.433Z,101788.61
2023-02-27T21:28:20.339Z,101793.58
2023-02-27T21:31:07.129Z,101790.52
2023-02-27T21:33:54.192Z,101788.67
2023-02-27T21:36:42.551Z,101791.96
2023-02-27T21:39:30.139Z,101795.91
2023-02-27T21:42:16.875Z,101797.45
2023-02-27T21:45:03.862Z,101798.69
2023-02-27T21:47:50.534Z,101803.30
2023-02-27T21:50:37.206Z,101804.01
2023-02-27T21:53:23.870Z,101805.21
2023-02-27T21:56:13.520Z,101806.08
2023-02-27T21:59:01.860Z,101806.08
2023-02-27T22:01:48.918Z,101808.31
2023-02-27T22:04:35.660Z,101806.43
2023-02-27T22:07:22.399Z,101807.81
2023-02-27T22:10:09.795Z,101809.69
2023-02-27T22:12:56.066Z,101811.60
2023-02-27T22:15:42.742Z,101815.69
2023-02-27T22:18:29.449Z,101818.44
2023-02-27T22:21:25.254Z,101816.90
2023-02-27T22:24:12.097Z,101816.21
2023-02-27T22:26:58.818Z,101816.21
2023-02-27T22:29:45.537Z,101812.81
2023-02-27T22:32:32.250Z,101820.31
2023-02-27T22:35:19.090Z,101821.52
2023-02-27T22:38:06.196Z,101821.85
2023-02-27T22:40:52.918Z,101824.58
2023-02-27T22:43:40.046Z,101826.81
2023-02-27T22:46:33.666Z,101826.27
2023-02-27T22:49:23.039Z,101830.21
2023-02-27T22:52:09.443Z,101825.94
2023-02-27T22:54:55.912Z,101826.29
2023-02-27T22:57:42.603Z,101824.39
2023-02-27T23:00:29.248Z,101823.71
2023-02-27T23:03:17.443Z,101823.54
2023-02-27T23:06:06.404Z,101825.75
2023-02-27T23:08:52.838Z,101822.69
2023-02-27T23:11:39.672Z,101820.45
2023-02-27T23:14:26.306Z,101817.90
2023-02-27T23:17:13.026Z,101816.18
2023-02-27T23:19:59.829Z,101816.52
2023-02-27T23:22:46.639Z,101816.52
2023-02-27T23:25:34.783Z,101821.63
2023-02-27T23:28:21.350Z,101825.90
2023-02-27T23:31:08.808Z,101825.55
2023-02-27T23:33:55.295Z,101828.80
2023-02-27T23:36:41.859Z,101824.88
2023-02-27T23:39:28.722Z,101826.41
2023-02-27T23:42:34.220Z,101831.18
2023-02-27T23:45:24.292Z,101831.14
2023-02-27T23:48:10.831Z,101833.00
2023-02-27T23:50:57.980Z,101835.20
2023-02-27T23:53:44.590Z,101838.42
2023-02-27T23:56:31.168Z,101843.71
2023-02-27T23:59:17.936Z,101839.79
